Time;durP1;ratioP1;P1;durP2;ratioP2;P2;SDS_P1;SDS_P2;PMS_P1;PMS_P2;Temp;Humidity;BMP_temperature;BMP_pressure;BME280_temperature;BME280_humidity;BME280_pressure;Samples;Min_cycle;Max_cycle;Signal;HPM_P1;HPM_P2
2022/12/26 00:01:25;;;;;;;8.63;6.03;;;7.10;99.90;;;;;;5004900;28;20042;-58
2022/12/26 00:03:51;;;;;;;6.90;6.28;;;7.10;99.90;;;;;;5005277;28;20037;-59
2022/12/26 00:06:20;;;;;;;7.65;6.15;;;7.20;99.90;;;;;;5006742;28;20068;-58
2022/12/26 00:08:46;;;;;;;7.55;5.68;;;7.30;99.90;;;;;;5004420;28;20034;-58
2022/12/26 00:11:13;;;;;;;5.60;5.10;;;7.30;99.90;;;;;;5001245;28;20034;-57
2022/12/26 00:13:39;;;;;;;8.40;5.88;;;7.30;99.90;;;;;;5001147;28;20030;-58
2022/12/26 00:16:17;;;;;;;7.53;6.18;;;7.30;99.90;;;;;;5004513;28;20394;-59
2022/12/26 00:18:44;;;;;;;6.10;5.35;;;7.30;99.90;;;;;;5003960;28;20035;-59
2022/12/26 00:21:12;;;;;;;6.60;5.22;;;7.30;99.90;;;;;;5006061;28;20060;-59
2022/12/26 00:23:38;;;;;;;8.07;5.45;;;7.30;99.90;;;;;;5000825;28;20034;-59
2022/12/26 00:26:09;;;;;;;8.48;5.57;;;7.30;99.90;;;;;;5001810;28;20422;-58
2022/12/26 00:28:35;;;;;;;8.70;5.70;;;7.30;99.90;;;;;;5003925;28;20112;-58
2022/12/26 00:31:06;;;;;;;7.10;5.65;;;7.30;99.90;;;;;;5003014;28;20101;-58
2022/12/26 00:33:35;;;;;;;5.97;5.47;;;7.30;99.90;;;;;;5004960;28;20033;-58
2022/12/26 00:36:07;;;;;;;8.05;5.30;;;7.30;99.90;;;;;;5003178;28;20490;-59
2022/12/26 00:38:34;;;;;;;6.18;5.57;;;7.30;99.90;;;;;;5003139;28;20030;-58
2022/12/26 00:41:00;;;;;;;8.27;5.30;;;7.30;99.90;;;;;;4991832;28;20397;-58
2022/12/26 00:43:25;;;;;;;7.63;4.97;;;7.30;99.90;;;;;;5001770;28;20018;-59
2022/12/26 00:45:51;;;;;;;6.28;4.95;;;7.30;99.90;;;;;;5003351;28;20026;-59
2022/12/26 00:48:17;;;;;;;6.85;5.30;;;7.40;99.90;;;;;;5001868;28;20018;-58
2022/12/26 00:50:43;;;;;;;6.05;5.07;;;7.40;99.90;;;;;;5003045;28;20113;-57
2022/12/26 00:53:09;;;;;;;7.93;5.28;;;7.40;99.90;;;;;;5003989;28;20105;-59
2022/12/26 00:55:34;;;;;;;6.18;5.43;;;7.40;99.90;;;;;;5001861;28;20117;-59
2022/12/26 00:58:00;;;;;;;8.25;5.57;;;7.50;99.90;;;;;;5003516;28;20116;-59
2022/12/26 01:00:25;;;;;;;6.70;5.35;;;7.50;99.90;;;;;;5004543;28;20062;-59
2022/12/26 01:02:51;;;;;;;8.40;5.38;;;7.50;99.90;;;;;;4999969;28;20443;-59
2022/12/26 01:05:17;;;;;;;5.95;4.95;;;7.50;99.90;;;;;;5003068;28;20045;-58
2022/12/26 01:07:42;;;;;;;6.05;5.43;;;7.60;99.90;;;;;;5004519;28;20206;-59
2022/12/26 01:10:11;;;;;;;8.90;5.53;;;7.60;99.90;;;;;;5002281;28;20034;-59
2022/12/26 01:12:37;;;;;;;5.78;5.10;;;7.60;99.90;;;;;;5002057;28;20734;-59
2022/12/26 01:15:04;;;;;;;5.50;5.00;;;7.60;99.90;;;;;;4996761;28;20030;-58
2022/12/26 01:17:30;;;;;;;7.40;5.15;;;7.60;99.90;;;;;;5000648;28;20026;-58
2022/12/26 01:19:56;;;;;;;5.10;4.20;;;7.60;99.90;;;;;;5001799;28;20030;-59
2022/12/26 01:22:23;;;;;;;8.05;4.70;;;7.50;99.90;;;;;;5004142;28;20026;-59
2022/12/26 01:24:55;;;;;;;5.90;5.30;;;7.60;99.90;;;;;;5004648;28;20028;-59
2022/12/26 01:27:23;;;;;;;5.30;4.80;;;7.60;99.90;;;;;;5001418;28;20050;-58
2022/12/26 01:29:48;;;;;;;7.57;4.25;;;7.60;99.90;;;;;;5001783;28;20438;-58
2022/12/26 01:32:14;;;;;;;4.97;4.03;;;7.60;99.90;;;;;;5002780;28;20034;-59
2022/12/26 01:34:40;;;;;;;4.80;4.30;;;7.70;99.90;;;;;;4991749;28;20037;-59
2022/12/26 01:37:06;;;;;;;5.85;4.20;;;7.80;99.90;;;;;;4991668;28;20088;-59
2022/12/26 01:39:31;;;;;;;5.15;4.07;;;7.80;99.90;;;;;;4991553;28;20429;-58
2022/12/26 01:41:57;;;;;;;5.13;3.40;;;7.90;99.90;;;;;;4991134;28;20042;-59
2022/12/26 01:44:56;;;;;;;4.15;3.38;;;8.00;99.90;;;;;;5003628;28;20635;-58
2022/12/26 01:47:24;;;;;;;3.50;3.13;;;8.10;99.90;;;;;;5006968;28;20040;-58
2022/12/26 01:49:53;;;;;;;4.28;3.60;;;8.10;99.90;;;;;;5004095;28;20934;-58
2022/12/26 01:52:29;;;;;;;3.50;3.17;;;8.10;99.90;;;;;;5007413;28;20100;-58
2022/12/26 01:54:55;;;;;;;4.78;3.92;;;8.10;99.90;;;;;;5006024;28;20025;-58
2022/12/26 01:57:30;;;;;;;5.80;3.45;;;8.20;99.90;;;;;;5004252;28;20506;-58
2022/12/26 01:59:57;;;;;;;4.07;2.70;;;8.20;99.90;;;;;;5005335;28;20038;-58
2022/12/26 02:02:26;;;;;;;4.50;3.20;;;8.30;99.90;;;;;;5007561;28;20030;-60
2022/12/26 02:07:40;;;;;;;4.40;2.90;;;8.30;99.90;;;;;;5006960;28;20045;-58
2022/12/26 02:10:11;;;;;;;3.75;2.38;;;8.30;99.90;;;;;;5005372;28;20053;-58
2022/12/26 02:12:37;;;;;;;5.28;2.85;;;8.30;99.90;;;;;;5006900;28;20026;-57
2022/12/26 02:15:07;;;;;;;4.05;2.78;;;8.40;99.90;;;;;;5003621;28;20037;-60
2022/12/26 02:17:33;;;;;;;3.35;3.05;;;8.40;99.90;;;;;;5004757;28;20048;-59
2022/12/26 02:20:19;;;;;;;3.17;2.50;;;8.50;99.90;;;;;;5004436;28;20038;-59
2022/12/26 02:23:23;;;;;;;3.85;2.65;;;8.60;99.90;;;;;;5005269;28;20553;-58
2022/12/26 02:26:16;;;;;;;3.13;2.58;;;8.60;99.90;;;;;;5005664;28;20096;-58
2022/12/26 02:29:02;;;;;;;4.55;2.83;;;8.80;99.90;;;;;;5004625;28;20052;-59
2022/12/26 02:31:44;;;;;;;3.92;2.50;;;8.90;99.90;;;;;;5004565;28;20030;-59
2022/12/26 02:34:22;;;;;;;4.13;2.60;;;9.00;99.90;;;;;;5006217;28;20125;-57
2022/12/26 02:36:51;;;;;;;10.65;2.90;;;9.10;99.90;;;;;;5006522;28;20184;-60
2022/12/26 02:39:34;;;;;;;2.75;2.08;;;9.20;99.90;;;;;;5007884;28;20036;-58
2022/12/26 02:42:18;;;;;;;2.70;2.28;;;9.30;99.90;;;;;;5006024;28;20026;-59
2022/12/26 02:48:51;;;;;;;2.22;2.00;;;9.20;99.90;;;;;;5006766;28;20092;-59
2022/12/26 03:14:54;;;;;;;3.72;2.50;;;9.20;99.90;;;;;;5004876;28;20034;-60
2022/12/26 03:17:34;;;;;;;3.10;2.20;;;9.10;99.90;;;;;;5005163;28;20026;-59
2022/12/26 03:20:26;;;;;;;3.75;2.38;;;9.10;99.90;;;;;;5001328;28;20327;-59
2022/12/26 03:23:05;;;;;;;4.40;2.40;;;9.20;99.90;;;;;;4996122;28;20022;-59
2022/12/26 03:28:28;;;;;;;2.05;1.85;;;9.30;99.90;;;;;;5004458;28;20040;-59
2022/12/26 03:30:57;;;;;;;3.35;2.58;;;9.40;99.90;;;;;;5006572;28;20385;-60
2022/12/26 03:36:12;;;;;;;3.25;2.05;;;9.50;99.90;;;;;;5006020;28;20111;-59
2022/12/26 03:38:50;;;;;;;;;;;9.70;99.90;;;;;;5003357;28;20164;-58
2022/12/26 04:20:21;;;;;;;2.35;1.88;;;10.00;99.90;;;;;;5002655;28;20049;-58
2022/12/26 04:45:40;;;;;;;4.03;2.63;;;10.00;99.90;;;;;;5002342;28;20437;-60
2022/12/26 04:50:51;;;;;;;5.15;3.17;;;10.00;99.90;;;;;;5002630;28;20037;-58
2022/12/26 04:53:18;;;;;;;3.53;2.80;;;10.00;99.90;;;;;;5003190;28;20022;-58
2022/12/26 04:55:44;;;;;;;2.70;1.80;;;10.00;99.90;;;;;;5003544;28;20038;-59
2022/12/26 04:58:10;;;;;;;2.83;2.15;;;10.10;99.90;;;;;;5003589;28;20034;-59
2022/12/26 05:00:35;;;;;;;6.80;2.20;;;10.10;99.90;;;;;;5002539;28;20415;-58
2022/12/26 05:11:18;;;;;;;6.82;2.00;;;10.20;99.90;;;;;;4999006;28;20099;-59
2022/12/26 05:13:44;;;;;;;3.30;2.20;;;10.20;99.90;;;;;;5003234;28;20494;-58
2022/12/26 05:30:06;;;;;;;3.28;2.47;;;9.60;99.90;;;;;;4981722;28;20131;-59
2022/12/26 05:35:17;;;;;;;2.88;2.55;;;9.50;99.90;;;;;;5001500;28;20650;-56
2022/12/26 05:37:43;;;;;;;3.85;2.63;;;9.50;99.90;;;;;;5004566;28;20577;-58
2022/12/26 05:40:09;;;;;;;4.10;2.40;;;9.40;99.90;;;;;;5001530;28;20030;-58
2022/12/26 05:42:34;;;;;;;3.65;2.95;;;9.40;99.90;;;;;;4999859;28;20029;-58
2022/12/26 05:45:00;;;;;;;6.63;2.40;;;9.30;99.90;;;;;;5000892;28;20026;-59
2022/12/26 05:47:26;;;;;;;6.05;2.58;;;9.40;99.90;;;;;;5001522;28;20034;-60
2022/12/26 05:49:51;;;;;;;2.97;2.63;;;9.40;99.90;;;;;;5003487;28;20034;-59
2022/12/26 05:52:17;;;;;;;3.33;2.05;;;9.40;99.90;;;;;;5004033;28;20398;-57
2022/12/26 05:54:43;;;;;;;4.03;2.58;;;9.40;99.90;;;;;;5000948;28;20022;-58
2022/12/26 05:57:08;;;;;;;7.97;2.88;;;9.40;99.90;;;;;;5001382;28;20033;-59
2022/12/26 05:59:34;;;;;;;3.72;2.45;;;9.40;99.90;;;;;;5002012;28;20069;-59
2022/12/26 06:01:59;;;;;;;3.50;2.40;;;9.30;99.90;;;;;;5001298;28;20520;-58
2022/12/26 06:04:25;;;;;;;2.70;2.47;;;9.40;99.90;;;;;;5001640;28;20030;-58
2022/12/26 06:06:55;;;;;;;3.05;2.30;;;9.30;99.90;;;;;;5004047;28;20065;-58
2022/12/26 06:09:24;;;;;;;4.32;2.83;;;9.40;99.90;;;;;;5001668;28;20113;-59
2022/12/26 06:11:50;;;;;;;3.35;2.60;;;9.30;99.90;;;;;;5002261;28;20026;-59
2022/12/26 06:14:16;;;;;;;3.38;2.58;;;9.40;99.90;;;;;;5000562;28;20513;-58
2022/12/26 06:16:41;;;;;;;5.88;2.20;;;9.30;99.90;;;;;;5000124;28;20157;-58
2022/12/26 06:19:07;;;;;;;3.17;1.80;;;9.30;99.90;;;;;;5002482;28;20172;-58
2022/12/26 06:21:33;;;;;;;4.07;3.17;;;9.30;99.90;;;;;;5005915;28;20034;-58
2022/12/26 06:23:58;;;;;;;2.70;2.10;;;9.30;99.90;;;;;;5000155;28;20023;-60
2022/12/26 06:26:24;;;;;;;3.55;2.25;;;9.30;99.90;;;;;;5000988;28;20099;-59
2022/12/26 06:28:50;;;;;;;4.60;2.58;;;9.20;99.90;;;;;;5006847;28;20266;-59
2022/12/26 06:31:20;;;;;;;5.07;2.55;;;9.20;99.90;;;;;;5005964;28;20097;-58
2022/12/26 06:33:47;;;;;;;3.30;1.92;;;9.20;99.90;;;;;;4990325;28;20030;-58
2022/12/26 06:36:15;;;;;;;3.00;2.00;;;9.20;99.90;;;;;;5006056;28;20022;-59
2022/12/26 06:38:41;;;;;;;3.42;2.15;;;9.20;99.90;;;;;;5004838;28;20037;-59
2022/12/26 06:41:09;;;;;;;3.50;2.10;;;9.30;99.90;;;;;;5005226;28;20081;-58
2022/12/26 06:43:35;;;;;;;3.70;2.80;;;9.40;99.90;;;;;;5005715;28;20054;-59
2022/12/26 06:46:03;;;;;;;2.95;2.25;;;9.40;99.90;;;;;;5005238;28;20928;-59
2022/12/26 06:48:29;;;;;;;3.25;2.38;;;9.40;99.90;;;;;;5003834;28;20030;-58
2022/12/26 06:50:55;;;;;;;2.67;2.45;;;9.40;99.90;;;;;;5007706;28;20030;-58
2022/12/26 06:53:22;;;;;;;2.92;2.10;;;9.40;99.90;;;;;;5006230;28;20022;-58
2022/12/26 06:55:48;;;;;;;5.13;2.38;;;9.40;99.90;;;;;;5005212;28;20058;-58
2022/12/26 06:58:15;;;;;;;4.82;2.25;;;9.40;99.90;;;;;;5000217;28;20034;-59
2022/12/26 07:00:40;;;;;;;3.60;2.58;;;9.30;99.90;;;;;;5005021;28;20371;-59
2022/12/26 07:03:06;;;;;;;2.72;2.53;;;9.30;99.90;;;;;;5005165;28;20033;-58
2022/12/26 07:05:35;;;;;;;5.03;2.50;;;9.30;99.90;;;;;;5009118;28;20529;-60
2022/12/26 07:08:00;;;;;;;3.65;2.80;;;9.40;99.90;;;;;;4994722;28;20093;-59
2022/12/26 07:10:26;;;;;;;2.17;1.98;;;9.50;99.90;;;;;;5003325;28;20033;-59
2022/12/26 07:12:52;;;;;;;3.38;2.38;;;9.60;99.90;;;;;;5004916;28;20113;-58
2022/12/26 07:15:17;;;;;;;3.85;2.20;;;9.60;99.90;;;;;;5008214;28;20056;-59
2022/12/26 07:17:43;;;;;;;4.47;2.20;;;9.60;99.90;;;;;;5009962;28;20030;-58
2022/12/26 07:20:09;;;;;;;2.22;2.03;;;9.50;99.90;;;;;;5009395;28;20038;-58
2022/12/26 07:22:35;;;;;;;4.35;2.38;;;9.50;99.90;;;;;;5009126;28;20088;-61
2022/12/26 07:25:00;;;;;;;2.35;2.03;;;9.40;99.90;;;;;;5009776;28;20022;-60
2022/12/26 07:27:26;;;;;;;3.25;2.38;;;9.40;99.90;;;;;;5009884;28;20026;-58
2022/12/26 07:29:52;;;;;;;3.40;2.28;;;9.40;99.90;;;;;;5010164;28;20049;-60
2022/12/26 07:32:17;;;;;;;3.05;2.28;;;9.50;99.90;;;;;;5010197;28;20551;-59
2022/12/26 07:34:43;;;;;;;2.47;2.25;;;9.50;99.90;;;;;;5008654;28;20037;-59
2022/12/26 07:37:09;;;;;;;3.10;2.40;;;9.50;99.90;;;;;;5008690;28;20038;-58
2022/12/26 07:39:36;;;;;;;2.88;2.30;;;9.50;99.90;;;;;;5008344;28;20069;-59
2022/12/26 07:42:02;;;;;;;4.40;2.50;;;9.50;99.90;;;;;;5007936;28;20034;-60
2022/12/26 07:44:30;;;;;;;8.85;2.60;;;9.60;99.90;;;;;;5007270;28;20042;-59
2022/12/26 07:46:57;;;;;;;3.08;1.90;;;9.70;99.90;;;;;;5008663;28;20042;-59
2022/12/26 07:49:23;;;;;;;2.75;2.00;;;9.70;99.90;;;;;;5009163;28;20030;-59
2022/12/26 07:51:49;;;;;;;2.95;2.17;;;9.80;99.90;;;;;;5009283;28;20022;-59
2022/12/26 07:54:15;;;;;;;2.63;2.33;;;9.80;99.90;;;;;;5010055;28;20041;-60
2022/12/26 07:56:41;;;;;;;3.30;2.33;;;9.90;99.90;;;;;;5008366;28;20100;-59
2022/12/26 07:59:14;;;;;;;2.97;2.67;;;9.90;99.90;;;;;;5009639;28;20065;-60
2022/12/26 08:01:41;;;;;;;10.52;2.80;;;10.00;99.90;;;;;;5008894;28;20029;-59
2022/12/26 08:04:06;;;;;;;3.20;1.90;;;10.00;99.90;;;;;;5008660;28;20030;-60
2022/12/26 08:06:32;;;;;;;6.15;2.00;;;10.10;99.90;;;;;;5008208;28;20041;-59
2022/12/26 08:08:58;;;;;;;2.38;1.83;;;10.20;99.90;;;;;;5008426;28;20022;-60
2022/12/26 08:11:24;;;;;;;2.80;2.10;;;10.20;99.90;;;;;;5007835;28;20338;-59
2022/12/26 08:13:52;;;;;;;2.65;2.05;;;10.20;99.90;;;;;;5015062;28;20033;-59
2022/12/26 08:16:18;;;;;;;3.63;2.05;;;10.20;99.90;;;;;;5008158;28;20018;-59
2022/12/26 08:18:44;;;;;;;2.00;1.63;;;10.30;99.90;;;;;;5009066;28;20037;-57
2022/12/26 08:21:10;;;;;;;3.95;1.83;;;10.40;99.90;;;;;;5007879;28;20137;-59
2022/12/26 08:23:36;;;;;;;2.90;2.20;;;10.50;99.90;;;;;;5009211;28;20030;-59
2022/12/26 08:26:07;;;;;;;4.40;2.45;;;10.60;99.90;;;;;;5008612;28;20034;-58
2022/12/26 08:28:33;;;;;;;8.10;2.03;;;10.70;99.90;;;;;;5009498;28;20132;-59
2022/12/26 08:30:59;;;;;;;4.90;2.05;;;10.70;99.90;;;;;;5009712;28;20495;-61
2022/12/26 08:33:25;;;;;;;2.50;1.65;;;10.80;99.90;;;;;;5008390;28;20030;-58
2022/12/26 08:35:51;;;;;;;9.68;2.17;;;10.70;99.90;;;;;;5008886;28;20107;-58
2022/12/26 08:38:16;;;;;;;3.88;1.92;;;10.80;99.90;;;;;;5008698;28;20045;-58
2022/12/26 08:40:42;;;;;;;4.95;2.50;;;10.90;99.90;;;;;;5009000;28;20121;-58
2022/12/26 08:43:07;;;;;;;2.10;1.90;;;11.00;99.90;;;;;;5009096;28;20470;-58
2022/12/26 08:45:33;;;;;;;2.28;1.85;;;11.00;99.90;;;;;;5008767;28;20030;-59
2022/12/26 08:47:59;;;;;;;2.97;2.03;;;11.10;99.90;;;;;;5008839;28;20026;-60
2022/12/26 08:50:25;;;;;;;7.57;2.00;;;11.00;99.90;;;;;;5007539;28;20030;-59
2022/12/26 08:52:51;;;;;;;3.97;1.65;;;10.90;99.90;;;;;;5007785;28;20038;-60
2022/12/26 08:55:16;;;;;;;4.70;2.40;;;10.60;99.90;;;;;;5008624;28;20025;-60
2022/12/26 08:57:42;;;;;;;3.83;2.25;;;10.50;99.90;;;;;;5008856;28;20030;-60
2022/12/26 09:00:09;;;;;;;5.10;2.33;;;10.40;99.90;;;;;;5008697;28;20033;-59
2022/12/26 09:02:35;;;;;;;5.43;2.88;;;10.20;99.90;;;;;;4994943;28;20026;-59
2022/12/26 09:05:00;;;;;;;4.47;3.03;;;10.10;99.90;;;;;;5008278;28;20032;-60
2022/12/26 09:07:26;;;;;;;7.43;4.05;;;10.00;99.90;;;;;;5007386;28;20061;-60
2022/12/26 09:09:51;;;;;;;3.95;3.13;;;9.90;99.90;;;;;;5008810;28;20053;-60
2022/12/26 09:12:17;;;;;;;4.20;2.72;;;9.90;99.90;;;;;;5008548;28;20548;-60
2022/12/26 09:14:42;;;;;;;3.40;3.10;;;9.90;99.90;;;;;;5007608;28;20382;-58
2022/12/26 09:17:09;;;;;;;4.45;3.38;;;10.00;99.90;;;;;;5008488;28;20061;-59
2022/12/26 09:19:35;;;;;;;5.07;3.70;;;10.00;99.90;;;;;;5007172;28;20379;-59
2022/12/26 09:24:46;;;;;;;3.58;3.28;;;10.00;99.90;;;;;;5006248;28;20101;-60
2022/12/26 09:27:12;;;;;;;5.38;3.95;;;10.10;99.90;;;;;;5007454;28;20113;-60
2022/12/26 09:29:37;;;;;;;5.38;2.88;;;10.10;99.90;;;;;;5008462;28;20105;-60
2022/12/26 09:32:03;;;;;;;6.75;2.80;;;10.10;99.90;;;;;;5007590;28;20625;-58
2022/12/26 09:34:29;;;;;;;4.88;2.95;;;10.10;99.90;;;;;;5008107;28;20034;-58
2022/12/26 09:36:55;;;;;;;4.22;2.75;;;10.10;99.90;;;;;;5007680;28;20064;-59
2022/12/26 09:39:21;;;;;;;3.80;2.80;;;10.20;99.90;;;;;;5007011;28;20042;-59
2022/12/26 09:42:00;;;;;;;3.13;2.83;;;10.20;99.90;;;;;;5007207;28;20033;-59
2022/12/26 09:44:51;;;;;;;4.60;3.30;;;10.30;99.90;;;;;;5006923;28;20088;-59
2022/12/26 09:47:36;;;;;;;3.87;3.07;;;10.30;99.90;;;;;;5006492;28;20034;-59
2022/12/26 09:50:04;;;;;;;4.88;3.28;;;10.30;99.90;;;;;;5007685;28;20042;-59
2022/12/26 09:52:39;;;;;;;5.57;2.65;;;10.30;99.90;;;;;;5008043;28;20029;-60
2022/12/26 09:55:22;;;;;;;4.63;3.03;;;10.20;99.90;;;;;;5007704;28;20107;-60
2022/12/26 09:57:50;;;;;;;5.47;3.05;;;10.20;99.90;;;;;;5007930;28;20502;-60
2022/12/26 10:00:24;;;;;;;3.92;2.85;;;10.20;99.90;;;;;;5006867;28;20037;-59
2022/12/26 10:02:57;;;;;;;3.78;3.13;;;10.20;99.90;;;;;;5009466;28;20025;-60
2022/12/26 10:05:29;;;;;;;6.85;3.50;;;10.20;99.90;;;;;;5011615;28;20022;-60
2022/12/26 10:08:01;;;;;;;3.90;2.80;;;10.20;99.90;;;;;;5010810;28;20042;-60
2022/12/26 10:10:38;;;;;;;4.13;3.72;;;10.10;99.90;;;;;;5001802;28;20037;-60
2022/12/26 10:13:06;;;;;;;3.55;3.08;;;10.10;99.90;;;;;;5014812;28;20542;-59
2022/12/26 10:16:15;;;;;;;3.83;2.72;;;10.10;99.90;;;;;;5010575;28;20096;-59
2022/12/26 10:19:07;;;;;;;4.50;3.95;;;10.00;99.90;;;;;;4963824;28;20058;-59
2022/12/26 10:21:47;;;;;;;6.65;3.05;;;10.00;99.90;;;;;;4962263;28;20038;-59
2022/12/26 10:24:21;;;;;;;4.30;3.40;;;10.00;99.90;;;;;;5002082;28;20046;-60
2022/12/26 10:26:50;;;;;;;4.45;2.70;;;10.10;99.90;;;;;;5009567;28;20088;-59
2022/12/26 10:29:54;;;;;;;4.05;3.00;;;10.10;99.90;;;;;;4993957;28;20028;-59
2022/12/26 10:32:22;;;;;;;6.05;2.75;;;10.10;99.90;;;;;;5008251;28;20028;-59
2022/12/26 10:34:49;;;;;;;3.72;2.63;;;10.10;99.90;;;;;;5009886;28;20030;-60
2022/12/26 10:37:23;;;;;;;3.80;2.45;;;10.00;99.90;;;;;;5011000;28;20498;-61
2022/12/26 10:39:58;;;;;;;3.17;2.78;;;10.00;99.90;;;;;;4991431;28;20475;-59
2022/12/26 10:42:29;;;;;;;4.70;2.63;;;10.00;99.90;;;;;;5009674;28;20384;-60
2022/12/26 10:44:57;;;;;;;3.38;2.50;;;10.00;99.90;;;;;;4998277;28;20069;-60
2022/12/26 10:47:39;;;;;;;4.00;2.38;;;10.00;99.90;;;;;;5009909;28;20034;-59
2022/12/26 10:50:05;;;;;;;2.53;2.33;;;10.00;99.90;;;;;;5009619;28;20034;-61
2022/12/26 10:52:37;;;;;;;3.35;2.67;;;10.00;99.90;;;;;;5009189;28;20064;-59
2022/12/26 10:55:03;;;;;;;1.80;1.70;;;10.00;99.90;;;;;;5008708;28;20029;-59
2022/12/26 10:57:33;;;;;;;2.90;1.50;;;10.10;99.90;;;;;;5010405;28;20033;-59
2022/12/26 11:00:01;;;;;;;3.97;1.90;;;10.10;99.90;;;;;;5009799;28;20028;-59
2022/12/26 11:02:31;;;;;;;2.40;2.03;;;10.20;99.90;;;;;;5008994;28;20392;-59
2022/12/26 11:05:06;;;;;;;2.25;1.70;;;10.20;99.90;;;;;;5009887;28;20061;-59
2022/12/26 11:07:36;;;;;;;2.28;2.03;;;10.20;99.90;;;;;;5010159;28;20037;-59
2022/12/26 11:10:05;;;;;;;3.35;1.80;;;10.20;99.90;;;;;;5009745;28;20101;-58
2022/12/26 11:12:49;;;;;;;2.78;1.80;;;10.30;99.90;;;;;;5010256;28;20113;-60
2022/12/26 11:15:38;;;;;;;2.35;1.88;;;10.30;99.90;;;;;;5007743;28;20044;-59
2022/12/26 11:18:14;;;;;;;3.20;2.05;;;10.30;99.90;;;;;;5009084;28;20030;-58
2022/12/26 11:20:41;;;;;;;2.00;1.80;;;10.30;99.90;;;;;;5007487;28;20068;-59
2022/12/26 11:23:27;;;;;;;2.65;1.42;;;10.30;99.90;;;;;;5009706;28;20030;-59
2022/12/26 11:26:01;;;;;;;2.38;1.67;;;10.30;99.90;;;;;;5008291;28;20030;-58
2022/12/26 11:28:32;;;;;;;2.28;1.55;;;10.30;99.90;;;;;;5006204;28;20038;-59
2022/12/26 11:31:00;;;;;;;2.55;1.80;;;10.30;99.90;;;;;;5007856;28;20033;-60
2022/12/26 11:33:43;;;;;;;2.03;1.70;;;10.30;99.90;;;;;;5006277;28;20073;-59
2022/12/26 11:36:20;;;;;;;1.95;1.73;;;10.30;99.90;;;;;;5000843;28;20030;-60
2022/12/26 11:38:56;;;;;;;2.63;1.92;;;10.30;99.90;;;;;;5005173;28;20042;-59
2022/12/26 11:41:30;;;;;;;3.78;1.63;;;10.40;99.90;;;;;;5002518;28;20117;-59
2022/12/26 11:44:10;;;;;;;1.70;1.60;;;10.40;99.90;;;;;;5007248;28;20506;-59
2022/12/26 11:46:55;;;;;;;4.10;2.00;;;10.40;99.90;;;;;;5005798;28;20152;-58
2022/12/26 11:49:28;;;;;;;1.92;1.55;;;10.40;99.90;;;;;;5007038;28;20042;-61
2022/12/26 11:51:55;;;;;;;2.58;1.50;;;10.40;99.90;;;;;;5007059;28;20060;-58
2022/12/26 11:54:32;;;;;;;2.65;1.70;;;10.50;99.90;;;;;;5008908;28;20037;-60
2022/12/26 11:57:26;;;;;;;1.70;1.38;;;10.50;99.90;;;;;;5007340;28;20034;-59
2022/12/26 11:59:52;;;;;;;1.85;1.30;;;10.50;99.90;;;;;;5009819;28;20034;-60
2022/12/26 12:02:28;;;;;;;2.20;1.70;;;10.60;99.90;;;;;;5004599;28;20045;-59
2022/12/26 12:04:58;;;;;;;1.77;1.27;;;10.60;99.90;;;;;;5008257;28;20058;-59
2022/12/26 12:07:35;;;;;;;1.90;1.70;;;10.60;99.90;;;;;;5007106;28;20522;-59
2022/12/26 12:10:07;;;;;;;2.00;1.80;;;10.60;99.90;;;;;;5008075;28;20096;-60
2022/12/26 12:12:51;;;;;;;1.48;1.38;;;10.60;99.90;;;;;;5005216;28;20034;-58
2022/12/26 12:15:45;;;;;;;2.22;1.40;;;10.60;99.90;;;;;;5004131;28;20030;-57
2022/12/26 12:18:39;;;;;;;4.15;1.40;;;10.60;99.90;;;;;;5005440;28;20042;-59
2022/12/26 12:21:25;;;;;;;1.35;1.20;;;10.60;99.90;;;;;;5002009;28;20045;-59
2022/12/26 12:24:21;;;;;;;2.30;1.40;;;10.60;99.90;;;;;;5006525;28;20034;-59
2022/12/26 12:27:08;;;;;;;2.65;1.20;;;10.70;99.90;;;;;;5008401;28;20033;-59
2022/12/26 12:29:42;;;;;;;1.30;1.10;;;10.70;99.90;;;;;;5007859;28;20053;-59
2022/12/26 12:32:22;;;;;;;1.65;1.13;;;10.70;99.90;;;;;;5004049;28;20036;-60
2022/12/26 12:34:50;;;;;;;1.48;1.10;;;10.80;99.90;;;;;;5004671;28;20057;-58
2022/12/26 12:37:38;;;;;;;1.58;1.35;;;10.80;99.90;;;;;;5008552;28;20577;-58
2022/12/26 12:40:27;;;;;;;1.63;1.20;;;10.90;99.90;;;;;;5008633;28;20079;-59
2022/12/26 12:43:04;;;;;;;1.90;1.70;;;10.90;99.90;;;;;;5005343;28;20089;-60
2022/12/26 12:45:35;;;;;;;1.20;1.10;;;10.90;99.90;;;;;;5005465;28;20131;-59
2022/12/26 12:48:15;;;;;;;1.67;1.38;;;10.90;99.90;;;;;;5005626;28;20251;-58
2022/12/26 12:51:02;;;;;;;1.60;1.20;;;10.90;99.90;;;;;;5009007;28;20030;-58
2022/12/26 12:53:28;;;;;;;1.20;1.10;;;10.90;99.90;;;;;;5008018;28;20517;-59
2022/12/26 12:56:22;;;;;;;1.55;1.05;;;10.90;99.90;;;;;;5008363;28;20042;-59
2022/12/26 12:59:34;;;;;;;1.38;1.00;;;10.90;99.90;;;;;;4998370;28;20510;-58
2022/12/26 13:02:12;;;;;;;1.38;0.95;;;10.90;99.90;;;;;;4933513;29;20039;-60
2022/12/26 13:04:42;;;;;;;1.20;1.10;;;10.80;99.90;;;;;;5000981;28;20099;-58
2022/12/26 13:07:26;;;;;;;2.60;1.20;;;10.70;99.90;;;;;;5006211;28;20026;-59
2022/12/26 13:09:56;;;;;;;1.58;1.10;;;10.70;99.90;;;;;;5008341;28;20049;-60
2022/12/26 13:12:27;;;;;;;1.48;1.10;;;10.60;99.90;;;;;;5006983;28;20034;-59
2022/12/26 13:15:00;;;;;;;1.85;1.20;;;10.50;99.90;;;;;;5008406;28;20029;-58
2022/12/26 13:17:31;;;;;;;1.95;1.40;;;10.50;99.90;;;;;;5007734;28;20045;-58
2022/12/26 13:20:20;;;;;;;2.10;1.25;;;10.40;99.90;;;;;;5007643;28;20030;-60
2022/12/26 13:25:47;;;;;;;1.42;1.33;;;10.20;99.90;;;;;;5008055;28;20128;-60
2022/12/26 13:28:20;;;;;;;1.45;1.20;;;10.10;99.90;;;;;;5007913;28;20486;-60
2022/12/26 13:30:53;;;;;;;2.15;1.45;;;10.00;99.90;;;;;;5007309;28;20805;-60
2022/12/26 13:33:18;;;;;;;1.73;1.50;;;9.90;99.90;;;;;;5004703;28;20033;-60
2022/12/26 13:36:02;;;;;;;3.58;1.85;;;9.80;99.90;;;;;;5003603;28;20038;-59
2022/12/26 13:38:50;;;;;;;3.83;2.30;;;9.70;99.90;;;;;;5004583;28;20045;-60
2022/12/26 13:44:26;;;;;;;3.05;2.05;;;9.60;99.90;;;;;;5005112;28;20045;-60
2022/12/26 13:46:51;;;;;;;3.63;3.03;;;9.60;99.90;;;;;;5004624;28;20053;-60
2022/12/26 13:49:35;;;;;;;4.00;2.72;;;9.50;99.90;;;;;;5008573;28;20549;-59
2022/12/26 13:52:10;;;;;;;4.22;2.47;;;9.50;99.90;;;;;;5004613;28;20052;-59
2022/12/26 13:55:15;;;;;;;3.20;1.65;;;9.50;99.90;;;;;;5005679;28;20026;-60
2022/12/26 13:57:43;;;;;;;2.28;1.70;;;9.50;99.90;;;;;;5005454;28;20099;-59
2022/12/26 14:00:39;;;;;;;2.20;1.33;;;9.50;99.90;;;;;;5007342;28;20495;-60
2022/12/26 14:03:36;;;;;;;3.70;1.70;;;9.60;99.90;;;;;;5006802;28;20044;-58
2022/12/26 14:06:11;;;;;;;4.18;1.80;;;9.60;99.90;;;;;;5007328;28;20048;-59
2022/12/26 14:08:39;;;;;;;4.20;3.80;;;9.50;99.90;;;;;;5007694;28;20026;-59
2022/12/26 14:11:31;;;;;;;2.55;1.48;;;9.40;99.90;;;;;;5006315;28;20030;-58
2022/12/26 14:14:05;;;;;;;;;;;9.40;99.90;;;;;;5006832;28;20398;-59
2022/12/26 14:17:12;;;;;;;1.55;1.40;;;9.30;99.90;;;;;;5006979;28;19917;-59
2022/12/26 14:19:56;;;;;;;1.88;1.42;;;9.30;99.90;;;;;;5006327;28;20049;-60
2022/12/26 14:22:53;;;;;;;1.40;1.30;;;9.30;99.90;;;;;;5005795;28;20030;-60
2022/12/26 14:25:37;;;;;;;1.30;1.20;;;9.20;99.90;;;;;;5006836;28;20439;-59
2022/12/26 14:28:24;;;;;;;2.22;1.30;;;9.30;99.90;;;;;;5006638;28;20053;-59
2022/12/26 14:31:00;;;;;;;1.70;1.60;;;9.30;99.90;;;;;;5006739;28;20072;-59
2022/12/26 14:33:32;;;;;;;1.77;1.50;;;9.30;99.90;;;;;;5004613;28;20128;-60
2022/12/26 14:36:17;;;;;;;2.25;1.65;;;9.30;99.90;;;;;;5007064;28;20053;-59
2022/12/26 14:38:59;;;;;;;1.63;1.40;;;9.30;99.90;;;;;;5005914;28;20197;-60
2022/12/26 14:44:21;;;;;;;1.50;1.40;;;9.30;99.90;;;;;;4992472;28;20036;-60
2022/12/26 14:46:54;;;;;;;2.22;1.70;;;9.30;99.90;;;;;;5002774;28;20041;-59
2022/12/26 14:49:29;;;;;;;1.45;1.23;;;9.30;99.90;;;;;;5004740;28;20080;-58
2022/12/26 14:52:24;;;;;;;1.65;1.55;;;9.30;99.90;;;;;;5008699;28;20811;-60
2022/12/26 14:54:54;;;;;;;1.73;1.63;;;9.40;99.90;;;;;;5007477;28;20034;-59
2022/12/26 14:57:45;;;;;;;5.78;1.63;;;9.40;99.90;;;;;;5009499;28;20661;-60
2022/12/26 15:00:20;;;;;;;2.92;1.50;;;9.30;99.90;;;;;;5008141;28;20046;-60
2022/12/26 15:03:12;;;;;;;1.98;1.25;;;9.40;99.90;;;;;;5009254;28;20402;-59
2022/12/26 15:05:39;;;;;;;2.05;1.40;;;9.40;99.90;;;;;;4981778;28;20506;-59
2022/12/26 15:08:44;;;;;;;1.40;1.30;;;9.40;99.90;;;;;;5010297;28;20096;-59
2022/12/26 15:11:15;;;;;;;1.60;1.20;;;9.40;99.90;;;;;;5007810;28;20033;-59
2022/12/26 15:14:12;;;;;;;2.08;1.55;;;9.40;99.90;;;;;;5008049;28;20037;-60
2022/12/26 15:17:04;;;;;;;1.88;1.77;;;9.40;99.90;;;;;;5007518;28;20532;-59
2022/12/26 15:19:42;;;;;;;2.25;1.80;;;9.30;99.90;;;;;;5008601;28;20441;-59
2022/12/26 15:22:08;;;;;;;3.35;1.77;;;9.40;99.90;;;;;;5005906;28;20501;-60
2022/12/26 15:24:55;;;;;;;1.52;1.40;;;9.30;99.90;;;;;;5007615;28;20041;-60
2022/12/26 15:27:59;;;;;;;1.63;1.40;;;9.30;99.90;;;;;;5007827;28;20056;-60
2022/12/26 15:30:55;;;;;;;1.90;1.55;;;9.20;99.90;;;;;;4995580;28;20070;-59
2022/12/26 15:33:43;;;;;;;1.70;1.60;;;9.20;99.90;;;;;;5007164;28;20081;-59
2022/12/26 15:36:30;;;;;;;2.17;1.77;;;9.20;99.90;;;;;;4991634;28;20125;-58
2022/12/26 15:39:05;;;;;;;2.30;1.63;;;9.20;99.90;;;;;;5011158;28;20038;-60